createdAt,value
2018-02-09T00:01:56.652Z,101490
2018-02-09T00:04:24.845Z,101494
2018-02-09T00:06:53.105Z,101486
2018-02-09T00:09:21.353Z,101496
2018-02-09T00:11:50.087Z,101489
2018-02-09T00:14:18.344Z,101494
2018-02-09T00:16:46.564Z,101488
2018-02-09T00:19:14.784Z,101487
2018-02-09T00:21:43.039Z,101491
2018-02-09T00:24:11.255Z,101486
2018-02-09T00:26:39.453Z,101489
2018-02-09T00:29:07.689Z,101491
2018-02-09T00:31:36.618Z,101491
2018-02-09T00:34:04.832Z,101481
2018-02-09T00:36:33.099Z,101494
2018-02-09T00:39:01.371Z,101494
2018-02-09T00:41:33.537Z,101495
2018-02-09T00:44:03.067Z,101501
2018-02-09T00:46:31.318Z,101498
2018-02-09T00:48:59.544Z,101504
2018-02-09T00:51:28.091Z,101492
2018-02-09T00:53:57.194Z,101489
2018-02-09T00:56:25.408Z,101493
2018-02-09T00:58:53.627Z,101479
2018-02-09T01:01:21.884Z,101491
2018-02-09T01:03:50.856Z,101493
2018-02-09T01:06:19.073Z,101491
2018-02-09T01:08:47.309Z,101499
2018-02-09T01:11:15.502Z,101489
2018-02-09T01:13:44.460Z,101494
2018-02-09T01:16:12.692Z,101491
2018-02-09T01:18:40.920Z,101494
2018-02-09T01:21:09.196Z,101482
2018-02-09T01:23:38.153Z,101480
2018-02-09T01:26:06.392Z,101474
2018-02-09T01:28:34.636Z,101480
2018-02-09T01:31:02.828Z,101474
2018-02-09T01:33:31.804Z,101478
2018-02-09T01:36:00.104Z,101477
2018-02-09T01:38:28.380Z,101466
2018-02-09T01:40:56.601Z,101473
2018-02-09T01:43:24.839Z,101460
2018-02-09T01:45:53.041Z,101464
2018-02-09T01:48:21.284Z,101466
2018-02-09T01:50:49.524Z,101460
2018-02-09T01:53:17.712Z,101464
2018-02-09T01:55:46.712Z,101454
2018-02-09T01:58:14.904Z,101453
2018-02-09T02:00:43.109Z,101445
2018-02-09T02:03:11.785Z,101456
2018-02-09T02:05:40.124Z,101442
2018-02-09T02:08:08.321Z,101446
2018-02-09T02:10:36.512Z,101437
2018-02-09T02:13:04.729Z,101453
2018-02-09T02:15:33.700Z,101445
2018-02-09T02:18:02.030Z,101452
2018-02-09T02:20:30.241Z,101442
2018-02-09T02:22:58.432Z,101439
2018-02-09T02:25:26.693Z,101437
2018-02-09T02:27:55.004Z,101426
2018-02-09T02:30:23.223Z,101431
2018-02-09T02:32:51.539Z,101426
2018-02-09T02:35:20.496Z,101425
2018-02-09T02:37:48.704Z,101423
2018-02-09T02:40:17.680Z,101425
2018-02-09T02:42:45.920Z,101419
2018-02-09T02:45:14.114Z,101417
2018-02-09T02:47:42.324Z,101415
2018-02-09T02:50:11.305Z,101425
2018-02-09T02:52:39.517Z,101426
2018-02-09T02:55:07.756Z,101418
2018-02-09T02:57:36.748Z,101419
2018-02-09T03:00:04.960Z,101416
2018-02-09T03:02:33.420Z,101415
2018-02-09T03:05:01.613Z,101403
2018-02-09T03:07:29.832Z,101410
2018-02-09T03:09:58.184Z,101412
2018-02-09T03:12:26.424Z,101413
2018-02-09T03:14:54.626Z,101406
2018-02-09T03:17:23.601Z,101399
2018-02-09T03:19:51.820Z,101396
2018-02-09T03:22:20.022Z,101392
2018-02-09T03:24:49.037Z,101399
2018-02-09T03:27:17.256Z,101385
2018-02-09T03:29:45.475Z,101393
2018-02-09T03:32:13.728Z,101379
2018-02-09T03:34:42.714Z,101378
2018-02-09T03:37:10.928Z,101384
2018-02-09T03:39:39.156Z,101385
2018-02-09T03:42:07.348Z,101366
2018-02-09T03:44:36.332Z,101388
2018-02-09T03:47:05.340Z,101379
2018-02-09T03:49:34.314Z,101374
2018-02-09T03:52:02.524Z,101376
2018-02-09T03:54:30.737Z,101380
2018-02-09T03:56:58.932Z,101380
2018-02-09T03:59:27.265Z,101385
2018-02-09T04:01:55.476Z,101381
2018-02-09T04:04:23.672Z,101379
2018-02-09T04:06:52.757Z,101381
2018-02-09T04:09:21.740Z,101380
2018-02-09T04:11:50.017Z,101387
2018-02-09T04:14:18.245Z,101375
2018-02-09T04:16:46.468Z,101381
2018-02-09T04:19:14.707Z,101367
2018-02-09T04:21:42.901Z,101368
2018-02-09T04:24:11.089Z,101372
2018-02-09T04:26:40.124Z,101362
2018-02-09T04:29:08.325Z,101377
2018-02-09T04:31:36.535Z,101356
2018-02-09T06:00:39.201Z,101322
2018-02-09T06:03:07.415Z,101326
2018-02-09T06:05:35.635Z,101325
2018-02-09T06:08:03.979Z,101315
2018-02-09T06:10:33.338Z,101317
2018-02-09T06:13:01.558Z,101324
2018-02-09T06:15:30.576Z,101325
2018-02-09T06:17:58.792Z,101316
2018-02-09T06:20:26.993Z,101324
2018-02-09T06:22:56.071Z,101320
2018-02-09T06:25:24.565Z,101310
2018-02-09T06:27:52.757Z,101319
2018-02-09T06:30:21.733Z,101320
2018-02-09T06:32:51.033Z,101314
2018-02-09T06:35:20.967Z,101311
2018-02-09T06:37:49.217Z,101310
2018-02-09T06:40:17.414Z,101310
2018-02-09T06:42:45.617Z,101306
2018-02-09T06:45:13.850Z,101309
2018-02-09T06:47:42.808Z,101312
2018-02-09T06:50:10.996Z,101309
2018-02-09T06:52:39.232Z,101310
2018-02-09T06:55:07.445Z,101303
2018-02-09T06:57:36.397Z,101304
2018-02-09T07:00:04.609Z,101308
2018-02-09T07:02:32.814Z,101317
2018-02-09T07:05:01.084Z,101318
2018-02-09T07:07:29.277Z,101323
2018-02-09T07:09:57.483Z,101314
2018-02-09T07:12:25.723Z,101319
2018-02-09T07:14:54.313Z,101310
2018-02-09T07:17:22.529Z,101317
2018-02-09T07:19:50.871Z,101322
2018-02-09T07:22:19.092Z,101315
2018-02-09T07:24:47.280Z,101322
2018-02-09T07:27:16.252Z,101322
2018-02-09T07:29:44.464Z,101311
2018-02-09T07:32:12.676Z,101315
2018-02-09T07:34:40.902Z,101317
2018-02-09T07:37:09.856Z,101313
2018-02-09T07:39:38.146Z,101313
2018-02-09T07:42:06.363Z,101317
2018-02-09T07:44:34.568Z,101318
2018-02-09T07:47:02.813Z,101314
2018-02-09T07:49:31.048Z,101313
2018-02-09T07:52:00.060Z,101309
2018-02-09T07:54:28.316Z,101311
2018-02-09T07:56:57.403Z,101308
2018-02-09T07:59:25.615Z,101313
2018-02-09T08:01:53.857Z,101314
2018-02-09T08:04:22.831Z,101309
2018-02-09T08:06:51.021Z,101302
2018-02-09T08:09:19.212Z,101306
2018-02-09T08:11:47.456Z,101300
2018-02-09T08:14:15.675Z,101292
2018-02-09T08:16:43.856Z,101306
2018-02-09T08:19:12.069Z,101291
2018-02-09T08:21:40.343Z,101306
2018-02-09T08:24:08.534Z,101301
2018-02-09T08:26:36.752Z,101301
2018-02-09T08:29:04.936Z,101289
2018-02-09T08:31:33.145Z,101295
2018-02-09T08:34:01.393Z,101296
2018-02-09T08:36:29.601Z,101299
2018-02-09T08:38:57.788Z,101289
2018-02-09T08:41:26.793Z,101293
2018-02-09T08:43:55.004Z,101293
2018-02-09T08:46:23.281Z,101281
2018-02-09T08:48:51.473Z,101289
2018-02-09T08:51:19.768Z,101287
2018-02-09T08:53:48.025Z,101276
2018-02-09T08:56:16.241Z,101274
2018-02-09T08:58:44.489Z,101267
2018-02-09T09:01:12.860Z,101273
2018-02-09T09:03:41.044Z,101269
2018-02-09T09:06:09.272Z,101269
2018-02-09T09:08:37.551Z,101273
2018-02-09T09:11:05.764Z,101268
2018-02-09T09:13:33.944Z,101268
2018-02-09T09:16:02.940Z,101267
2018-02-09T09:18:31.901Z,101265
2018-02-09T09:21:00.131Z,101264
2018-02-09T09:23:28.328Z,101261
2018-02-09T09:25:56.598Z,101260
2018-02-09T09:28:24.845Z,101267
2018-02-09T09:30:53.029Z,101270
2018-02-09T09:33:21.218Z,101258
2018-02-09T09:35:49.494Z,101250
2018-02-09T09:38:17.684Z,101256
2018-02-09T09:40:45.885Z,101244
2018-02-09T09:43:14.169Z,101250
2018-02-09T09:45:43.126Z,101244
2018-02-09T09:48:11.331Z,101242
2018-02-09T09:50:40.320Z,101244
2018-02-09T09:53:09.327Z,101246
2018-02-09T09:55:38.309Z,101235
2018-02-09T09:58:07.288Z,101251
2018-02-09T10:00:35.534Z,101244
2018-02-09T10:03:03.920Z,101234
2018-02-09T10:05:32.137Z,101233
2018-02-09T10:08:01.146Z,101241
2018-02-09T10:10:29.353Z,101227
2018-02-09T10:12:57.541Z,101233
2018-02-09T10:15:25.752Z,101233
2018-02-09T10:17:53.972Z,101225
2018-02-09T10:20:22.194Z,101220
2018-02-09T10:22:51.163Z,101231
2018-02-09T10:25:19.529Z,101224
2018-02-09T10:27:47.884Z,101224
2018-02-09T10:30:16.075Z,101222
2018-02-09T10:32:44.260Z,101215
2018-02-09T10:35:12.475Z,101210
2018-02-09T10:37:40.720Z,101217
2018-02-09T10:40:08.906Z,101219
2018-02-09T10:42:37.866Z,101210
2018-02-09T10:45:06.100Z,101214
2018-02-09T10:47:34.325Z,101219
2018-02-09T10:50:02.513Z,101212
2018-02-09T10:52:31.486Z,101202
2018-02-09T10:54:59.708Z,101203
2018-02-09T10:57:27.961Z,101202
2018-02-09T10:59:56.932Z,101207
2018-02-09T11:02:25.260Z,101200
2018-02-09T11:04:53.476Z,101202
2018-02-09T11:07:22.005Z,101205
2018-02-09T11:09:50.208Z,101204
2018-02-09T11:12:20.767Z,101207
2018-02-09T11:14:48.965Z,101203
2018-02-09T11:17:17.925Z,101193
2018-02-09T11:19:46.179Z,101193
2018-02-09T11:22:14.388Z,101194
2018-02-09T11:24:42.580Z,101193
2018-02-09T11:27:11.601Z,101189
2018-02-09T11:29:39.788Z,101188
2018-02-09T11:32:08.001Z,101193
2018-02-09T11:34:36.230Z,101190
2018-02-09T11:37:04.891Z,101186
2018-02-09T11:39:33.137Z,101186
2018-02-09T11:42:02.124Z,101178
2018-02-09T11:44:30.340Z,101173
2018-02-09T11:46:58.584Z,101170
2018-02-09T11:49:27.542Z,101168
2018-02-09T11:51:55.777Z,101158
2018-02-09T11:54:24.023Z,101167
2018-02-09T11:56:53.008Z,101160
2018-02-09T11:59:22.005Z,101157
2018-02-09T12:01:51.041Z,101156
2018-02-09T12:04:19.233Z,101157
2018-02-09T12:06:47.434Z,101143
2018-02-09T12:09:15.966Z,101152
2018-02-09T12:11:44.225Z,101147
2018-02-09T12:14:12.417Z,101151
2018-02-09T12:16:40.672Z,101150
2018-02-09T12:19:09.636Z,101148
2018-02-09T12:21:37.840Z,101135
2018-02-09T12:24:06.045Z,101138
2018-02-09T12:26:34.381Z,101140
2018-02-09T12:29:02.633Z,101140
2018-02-09T12:31:31.616Z,101135
2018-02-09T12:33:59.893Z,101129
2018-02-09T12:36:28.120Z,101138
2018-02-09T12:38:56.396Z,101128
2018-02-09T12:41:24.623Z,101127
2018-02-09T12:43:52.839Z,101126
2018-02-09T12:46:21.082Z,101113
2018-02-09T12:48:50.082Z,101117
2018-02-09T12:51:19.840Z,101110
2018-02-09T12:53:48.065Z,101113
2018-02-09T12:56:17.100Z,101093
2018-02-09T12:58:45.304Z,101096
2018-02-09T13:01:13.528Z,101088
2018-02-09T13:03:41.789Z,101088
2018-02-09T13:06:10.103Z,101084
2018-02-09T13:08:38.341Z,101082
2018-02-09T13:11:06.600Z,101074
2018-02-09T13:13:36.017Z,101072
2018-02-09T13:16:04.984Z,101075
2018-02-09T13:18:48.048Z,101074
2018-02-09T13:21:16.896Z,101075
2018-02-09T13:24:03.140Z,101069
2018-02-09T13:26:31.471Z,101058
2018-02-09T13:29:00.483Z,101056
2018-02-09T13:31:28.712Z,101063
2018-02-09T13:33:57.190Z,101061
2018-02-09T13:36:43.548Z,101050
2018-02-09T13:39:11.764Z,101053
2018-02-09T13:41:40.033Z,101051
2018-02-09T13:44:08.336Z,101047
2018-02-09T13:46:36.579Z,101044
2018-02-09T13:49:06.231Z,101048
2018-02-09T13:51:35.269Z,101041
2018-02-09T13:54:04.652Z,101047
2018-02-09T13:56:33.109Z,101044
2018-02-09T13:59:02.913Z,101036
2018-02-09T14:01:31.901Z,101030
2018-02-09T14:04:01.121Z,101032
2018-02-09T14:06:29.928Z,101044
2018-02-09T14:08:58.184Z,101042
2018-02-09T14:11:26.459Z,101027
2018-02-09T14:13:54.708Z,101031
2018-02-09T14:16:22.897Z,101037
2018-02-09T14:18:51.221Z,101028
2018-02-09T14:21:19.459Z,101036
2018-02-09T14:23:47.725Z,101027
2018-02-09T14:26:16.908Z,101030
2018-02-09T14:28:45.901Z,101032
2018-02-09T14:31:14.117Z,101019
2018-02-09T14:33:42.376Z,101019
2018-02-09T14:36:10.560Z,101021
2018-02-09T14:38:38.789Z,101021
2018-02-09T14:41:07.050Z,101019
2018-02-09T14:43:35.273Z,101029
2018-02-09T14:46:03.469Z,101030
2018-02-09T14:48:31.725Z,101026
2018-02-09T14:50:59.933Z,101026
2018-02-09T14:53:28.152Z,101015
2018-02-09T14:55:57.229Z,101021
2018-02-09T14:58:25.427Z,101025
2018-02-09T15:00:54.425Z,101022
2018-02-09T15:03:22.656Z,101026
2018-02-09T15:05:50.877Z,101034
2018-02-09T15:08:19.085Z,101030
2018-02-09T15:10:47.324Z,101038
2018-02-09T15:13:15.565Z,101030
2018-02-09T15:15:43.788Z,101034
2018-02-09T15:18:12.005Z,101033
2018-02-09T15:20:40.249Z,101030
2018-02-09T15:23:08.488Z,101022
2018-02-09T15:25:36.785Z,101026
2018-02-09T15:28:04.984Z,101028
2018-02-09T15:30:33.189Z,101025
2018-02-09T15:33:01.429Z,101031
2018-02-09T15:35:29.682Z,101024
2018-02-09T15:37:57.937Z,101026
2018-02-09T15:40:26.152Z,101030
2018-02-09T15:42:54.426Z,101036
2018-02-09T15:45:23.007Z,101027
2018-02-09T15:47:51.245Z,101040
2018-02-09T15:50:19.531Z,101031
2018-02-09T15:52:47.760Z,101029
2018-02-09T15:55:15.992Z,101016
2018-02-09T15:57:44.206Z,101024
2018-02-09T16:00:13.396Z,101030
2018-02-09T16:02:41.600Z,101031
2018-02-09T16:05:11.851Z,101031
2018-02-09T16:07:40.619Z,101024
2018-02-09T16:10:08.837Z,101026
2018-02-09T16:12:37.033Z,101021
2018-02-09T16:15:05.269Z,101021
2018-02-09T16:17:33.477Z,101026
2018-02-09T16:20:01.677Z,101030
2018-02-09T16:22:30.743Z,101029
2018-02-09T16:25:00.183Z,101025
2018-02-09T16:27:28.456Z,101027
2018-02-09T16:29:56.725Z,101030
2018-02-09T16:32:25.775Z,101026
2018-02-09T16:34:53.987Z,101025
2018-02-09T16:37:23.029Z,101036
2018-02-09T16:39:51.260Z,101038
2018-02-09T16:42:19.476Z,101038
2018-02-09T16:44:47.725Z,101038
2018-02-09T16:47:15.979Z,101034
2018-02-09T16:49:44.946Z,101041
2018-02-09T16:52:13.176Z,101046
2018-02-09T16:54:41.912Z,101048
2018-02-09T16:57:10.713Z,101046
2018-02-09T16:59:39.730Z,101047
2018-02-09T17:02:07.940Z,101041
2018-02-09T17:04:36.133Z,101048
2018-02-09T17:07:04.450Z,101049
2018-02-09T17:09:32.697Z,101042
2018-02-09T17:12:00.908Z,101040
2018-02-09T17:14:29.250Z,101047
2018-02-09T17:16:57.462Z,101042
2018-02-09T17:19:26.314Z,101047
2018-02-09T17:21:54.541Z,101053
2018-02-09T17:24:22.756Z,101052
2018-02-09T17:26:51.004Z,101056
2018-02-09T17:29:19.212Z,101039
2018-02-09T17:31:48.192Z,101048
2018-02-09T17:34:16.427Z,101044
2018-02-09T17:36:44.853Z,101047
2018-02-09T17:39:13.044Z,101049
2018-02-09T17:41:42.173Z,101051
2018-02-09T17:44:10.384Z,101048
2018-02-09T17:46:38.585Z,101056
2018-02-09T17:49:07.574Z,101052
2018-02-09T17:51:36.525Z,101059
2018-02-09T17:54:04.723Z,101059
2018-02-09T17:56:32.960Z,101072
2018-02-09T17:59:01.169Z,101065
2018-02-09T18:01:29.382Z,101071
2018-02-09T18:03:57.613Z,101067
2018-02-09T18:06:26.745Z,101076
2018-02-09T18:08:54.957Z,101080
2018-02-09T18:11:23.717Z,101079
2018-02-09T18:13:51.906Z,101080
2018-02-09T18:16:20.100Z,101082
2018-02-09T18:18:48.312Z,101074
2018-02-09T18:21:17.446Z,101090
2018-02-09T18:23:45.644Z,101084
2018-02-09T18:26:13.858Z,101085
2018-02-09T18:28:43.005Z,101080
2018-02-09T18:31:11.224Z,101079
2018-02-09T18:33:40.208Z,101083
2018-02-09T18:36:09.227Z,101083
2018-02-09T18:38:37.417Z,101078
2018-02-09T18:41:05.600Z,101093
2018-02-09T18:43:33.831Z,101087
2018-02-09T18:46:02.825Z,101080
2018-02-09T18:48:31.780Z,101074
2018-02-09T18:50:59.988Z,101087
2018-02-09T18:53:28.949Z,101086
2018-02-09T18:55:57.756Z,101088
2018-02-09T18:58:26.765Z,101081
2018-02-09T19:00:54.980Z,101085
2018-02-09T19:03:23.208Z,101084
2018-02-09T19:05:52.399Z,101093
2018-02-09T19:08:21.370Z,101091
2018-02-09T19:10:49.571Z,101092
2018-02-09T19:13:18.584Z,101091
2018-02-09T19:15:46.868Z,101085
2018-02-09T19:18:15.718Z,101093
2018-02-09T19:20:44.712Z,101084
2018-02-09T19:23:13.693Z,101090
2018-02-09T19:25:41.882Z,101082
2018-02-09T19:28:10.898Z,101088
2018-02-09T19:30:40.421Z,101085
2018-02-09T19:33:08.749Z,101084
2018-02-09T19:35:37.708Z,101086
2018-02-09T19:38:05.926Z,101088
2018-02-09T19:40:35.068Z,101091
2018-02-09T19:43:03.304Z,101088
2018-02-09T19:45:31.608Z,101096
2018-02-09T19:47:59.861Z,101092
2018-02-09T19:50:28.947Z,101095
2018-02-09T19:52:57.195Z,101093
2018-02-09T19:55:25.385Z,101088
2018-02-09T19:57:54.484Z,101081
2018-02-09T20:00:23.453Z,101088
2018-02-09T20:02:51.663Z,101080
2018-02-09T20:05:19.901Z,101092
2018-02-09T20:07:48.144Z,101084
2018-02-09T20:10:16.417Z,101084
2018-02-09T20:12:44.733Z,101078
2018-02-09T20:15:13.693Z,101088
2018-02-09T20:17:42.101Z,101086
2018-02-09T20:20:10.335Z,101085
2018-02-09T20:22:38.549Z,101078
2018-02-09T20:25:07.540Z,101073
2018-02-09T20:27:36.512Z,101078
2018-02-09T20:30:04.740Z,101075
2018-02-09T20:32:32.961Z,101086
2018-02-09T20:35:01.177Z,101085
2018-02-09T20:37:29.991Z,101080
2018-02-09T20:39:58.200Z,101081
2018-02-09T20:42:26.413Z,101084
2018-02-09T20:44:54.624Z,101083
2018-02-09T20:47:22.944Z,101091
2018-02-09T20:49:51.968Z,101084
2018-02-09T20:52:20.225Z,101080
2018-02-09T20:54:49.208Z,101085
2018-02-09T20:57:18.206Z,101067
2018-02-09T20:59:47.181Z,101087
2018-02-09T21:02:16.376Z,101082
2018-02-09T21:04:44.680Z,101084
2018-02-09T21:07:12.901Z,101083
2018-02-09T21:09:41.211Z,101088
2018-02-09T21:12:10.215Z,101073
2018-02-09T21:14:38.408Z,101081
2018-02-09T21:17:06.629Z,101080
2018-02-09T21:19:35.616Z,101074
2018-02-09T21:22:03.844Z,101081
2018-02-09T21:24:33.133Z,101078
2018-02-09T21:27:01.345Z,101075
2018-02-09T21:29:29.558Z,101078
2018-02-09T21:31:58.545Z,101076
2018-02-09T21:34:26.753Z,101077
2018-02-09T21:36:55.061Z,101076
2018-02-09T21:39:23.586Z,101084
2018-02-09T21:41:52.564Z,101083
2018-02-09T21:44:20.955Z,101082
2018-02-09T21:46:49.925Z,101075
2018-02-09T21:49:18.249Z,101071
2018-02-09T21:51:46.488Z,101084
2018-02-09T21:54:14.698Z,101084
2018-02-09T21:56:42.904Z,101091
2018-02-09T21:59:11.126Z,101089
2018-02-09T22:01:39.316Z,101092
2018-02-09T22:04:07.561Z,101088
2018-02-09T22:06:36.853Z,101089
2018-02-09T22:09:05.105Z,101084
2018-02-09T22:11:33.356Z,101087
2018-02-09T22:14:01.548Z,101091
2018-02-09T22:16:29.804Z,101096
2018-02-09T22:18:58.013Z,101094
2018-02-09T22:21:26.361Z,101091
2018-02-09T22:23:54.553Z,101096
2018-02-09T22:26:22.745Z,101086
2018-02-09T22:28:50.972Z,101093
2018-02-09T22:31:19.201Z,101092
2018-02-09T22:33:47.388Z,101093
2018-02-09T22:36:16.348Z,101102
2018-02-09T22:38:44.597Z,101100
2018-02-09T22:41:12.797Z,101093
2018-02-09T22:43:41.612Z,101093
2018-02-09T22:46:10.720Z,101092
2018-02-09T22:48:38.944Z,101102
2018-02-09T22:51:07.136Z,101109
2018-02-09T22:53:35.359Z,101107
2018-02-09T22:56:03.593Z,101087
2018-02-09T22:58:31.830Z,101094
2018-02-09T23:01:00.099Z,101103
2018-02-09T23:03:28.316Z,101100
2018-02-09T23:05:56.564Z,101084
2018-02-09T23:08:24.780Z,101092
2018-02-09T23:10:54.688Z,101086
2018-02-09T23:13:23.717Z,101084
2018-02-09T23:15:51.904Z,101082
2018-02-09T23:18:20.116Z,101090
2018-02-09T23:20:48.370Z,101087
2018-02-09T23:23:16.588Z,101092
2018-02-09T23:25:45.569Z,101081
2018-02-09T23:28:14.589Z,101079
2018-02-09T23:30:42.780Z,101078
2018-02-09T23:33:11.024Z,101081
2018-02-09T23:35:39.230Z,101074
2018-02-09T23:38:07.432Z,101085
2018-02-09T23:40:35.661Z,101075
2018-02-09T23:43:03.870Z,101078
2018-02-09T23:45:32.056Z,101074
2018-02-09T23:48:00.369Z,101079
2018-02-09T23:50:28.558Z,101081
2018-02-09T23:52:56.751Z,101076
2018-02-09T23:55:24.996Z,101079
2018-02-09T23:57:53.209Z,101095
